sensor_id;sensor_type;location;lat;lon;timestamp;temperature;humidity
7762;DHT22;3925;48.636;9.516;2022-12-20T00:01:41;3.80;99.90
7762;DHT22;3925;48.636;9.516;2022-12-20T00:04:08;3.70;99.90
7762;DHT22;3925;48.636;9.516;2022-12-20T00:06:37;3.80;99.90
7762;DHT22;3925;48.636;9.516;2022-12-20T00:09:06;3.50;99.90
7762;DHT22;3925;48.636;9.516;2022-12-20T00:11:37;3.50;99.90
7762;DHT22;3925;48.636;9.516;2022-12-20T00:14:04;3.40;99.90
7762;DHT22;3925;48.636;9.516;2022-12-20T00:16:31;3.60;99.90
7762;DHT22;3925;48.636;9.516;2022-12-20T00:18:59;3.50;99.90
7762;DHT22;3925;48.636;9.516;2022-12-20T00:21:27;3.50;99.90
7762;DHT22;3925;48.636;9.516;2022-12-20T00:23:55;3.40;99.90
7762;DHT22;3925;48.636;9.516;2022-12-20T00:26:23;3.40;99.90
7762;DHT22;3925;48.636;9.516;2022-12-20T00:28:52;3.20;99.90
7762;DHT22;3925;48.636;9.516;2022-12-20T00:31:21;3.30;99.90
7762;DHT22;3925;48.636;9.516;2022-12-20T00:33:49;3.40;99.90
7762;DHT22;3925;48.636;9.516;2022-12-20T00:36:17;3.30;99.90
7762;DHT22;3925;48.636;9.516;2022-12-20T00:38:45;3.20;99.90
7762;DHT22;3925;48.636;9.516;2022-12-20T00:41:15;3.10;99.90
7762;DHT22;3925;48.636;9.516;2022-12-20T00:43:42;3.20;99.90
7762;DHT22;3925;48.636;9.516;2022-12-20T00:46:12;3.20;99.90
7762;DHT22;3925;48.636;9.516;2022-12-20T00:48:39;3.20;99.90
7762;DHT22;3925;48.636;9.516;2022-12-20T00:51:08;3.20;99.90
7762;DHT22;3925;48.636;9.516;2022-12-20T00:53:36;3.30;99.90
7762;DHT22;3925;48.636;9.516;2022-12-20T00:56:03;3.10;99.90
7762;DHT22;3925;48.636;9.516;2022-12-20T00:58:31;3.00;99.90
7762;DHT22;3925;48.636;9.516;2022-12-20T01:00:57;3.10;99.90
7762;DHT22;3925;48.636;9.516;2022-12-20T01:03:26;2.80;99.90
7762;DHT22;3925;48.636;9.516;2022-12-20T01:05:55;2.90;99.90
7762;DHT22;3925;48.636;9.516;2022-12-20T01:08:22;2.90;99.90
7762;DHT22;3925;48.636;9.516;2022-12-20T01:10:57;3.00;99.90
7762;DHT22;3925;48.636;9.516;2022-12-20T01:13:24;3.00;99.90
7762;DHT22;3925;48.636;9.516;2022-12-20T01:15:51;3.00;99.90
7762;DHT22;3925;48.636;9.516;2022-12-20T01:18:18;2.80;99.90
7762;DHT22;3925;48.636;9.516;2022-12-20T01:20:48;3.00;99.90
7762;DHT22;3925;48.636;9.516;2022-12-20T01:23:15;2.90;99.90
7762;DHT22;3925;48.636;9.516;2022-12-20T01:25:42;2.90;99.90
7762;DHT22;3925;48.636;9.516;2022-12-20T01:28:09;3.00;99.90
7762;DHT22;3925;48.636;9.516;2022-12-20T01:30:39;3.10;99.90
7762;DHT22;3925;48.636;9.516;2022-12-20T01:33:05;3.10;99.90
7762;DHT22;3925;48.636;9.516;2022-12-20T01:35:32;3.00;99.90
7762;DHT22;3925;48.636;9.516;2022-12-20T01:38:00;2.90;99.90
7762;DHT22;3925;48.636;9.516;2022-12-20T01:40:27;2.90;99.90
7762;DHT22;3925;48.636;9.516;2022-12-20T01:42:54;3.00;99.90
7762;DHT22;3925;48.636;9.516;2022-12-20T01:45:26;2.90;99.90
7762;DHT22;3925;48.636;9.516;2022-12-20T01:47:54;3.10;99.90
7762;DHT22;3925;48.636;9.516;2022-12-20T01:50:21;3.30;99.90
7762;DHT22;3925;48.636;9.516;2022-12-20T01:52:48;3.30;99.90
7762;DHT22;3925;48.636;9.516;2022-12-20T01:55:20;3.20;99.90
7762;DHT22;3925;48.636;9.516;2022-12-20T01:57:51;3.20;99.90
7762;DHT22;3925;48.636;9.516;2022-12-20T02:00:20;3.20;99.90
7762;DHT22;3925;48.636;9.516;2022-12-20T02:02:48;3.20;99.90
7762;DHT22;3925;48.636;9.516;2022-12-20T02:05:20;3.10;99.90
7762;DHT22;3925;48.636;9.516;2022-12-20T02:07:50;3.30;99.90
7762;DHT22;3925;48.636;9.516;2022-12-20T02:10:22;3.40;99.90
7762;DHT22;3925;48.636;9.516;2022-12-20T02:12:56;3.50;99.90
7762;DHT22;3925;48.636;9.516;2022-12-20T02:15:34;3.40;99.90
7762;DHT22;3925;48.636;9.516;2022-12-20T02:18:18;3.30;99.90
7762;DHT22;3925;48.636;9.516;2022-12-20T02:20:56;3.40;99.90
7762;DHT22;3925;48.636;9.516;2022-12-20T02:23:40;3.20;99.90
7762;DHT22;3925;48.636;9.516;2022-12-20T02:26:40;2.90;99.90
7762;DHT22;3925;48.636;9.516;2022-12-20T02:29:21;2.90;99.90
7762;DHT22;3925;48.636;9.516;2022-12-20T02:31:55;2.80;99.90
7762;DHT22;3925;48.636;9.516;2022-12-20T02:34:25;2.70;99.90
7762;DHT22;3925;48.636;9.516;2022-12-20T02:36:52;2.90;99.90
7762;DHT22;3925;48.636;9.516;2022-12-20T02:39:20;3.10;99.90
7762;DHT22;3925;48.636;9.516;2022-12-20T02:41:51;3.20;99.90
7762;DHT22;3925;48.636;9.516;2022-12-20T02:44:23;3.30;99.90
7762;DHT22;3925;48.636;9.516;2022-12-20T02:47:15;3.30;99.90
7762;DHT22;3925;48.636;9.516;2022-12-20T02:49:44;3.40;99.90
7762;DHT22;3925;48.636;9.516;2022-12-20T02:52:13;3.40;99.90
7762;DHT22;3925;48.636;9.516;2022-12-20T02:54:40;3.30;99.90
7762;DHT22;3925;48.636;9.516;2022-12-20T02:57:13;3.10;99.90
7762;DHT22;3925;48.636;9.516;2022-12-20T02:59:47;3.10;99.90
7762;DHT22;3925;48.636;9.516;2022-12-20T03:02:17;3.20;99.90
7762;DHT22;3925;48.636;9.516;2022-12-20T03:04:45;3.10;99.90
7762;DHT22;3925;48.636;9.516;2022-12-20T03:07:14;3.20;99.90
7762;DHT22;3925;48.636;9.516;2022-12-20T03:09:43;2.90;99.90
7762;DHT22;3925;48.636;9.516;2022-12-20T03:12:11;3.00;99.90
7762;DHT22;3925;48.636;9.516;2022-12-20T03:14:38;3.10;99.90
7762;DHT22;3925;48.636;9.516;2022-12-20T03:17:06;3.20;99.90
7762;DHT22;3925;48.636;9.516;2022-12-20T03:19:34;3.20;99.90
7762;DHT22;3925;48.636;9.516;2022-12-20T03:22:01;3.20;99.90
7762;DHT22;3925;48.636;9.516;2022-12-20T03:24:28;3.20;99.90
7762;DHT22;3925;48.636;9.516;2022-12-20T03:26:57;3.10;99.90
7762;DHT22;3925;48.636;9.516;2022-12-20T03:29:24;3.00;99.90
7762;DHT22;3925;48.636;9.516;2022-12-20T03:31:50;2.80;99.90
7762;DHT22;3925;48.636;9.516;2022-12-20T03:34:17;2.90;99.90
7762;DHT22;3925;48.636;9.516;2022-12-20T03:36:45;3.00;99.90
7762;DHT22;3925;48.636;9.516;2022-12-20T03:39:12;3.20;99.90
7762;DHT22;3925;48.636;9.516;2022-12-20T03:41:39;3.30;99.90
7762;DHT22;3925;48.636;9.516;2022-12-20T03:44:06;3.50;99.90
7762;DHT22;3925;48.636;9.516;2022-12-20T03:46:33;3.40;99.90
7762;DHT22;3925;48.636;9.516;2022-12-20T03:49:00;3.20;99.90
7762;DHT22;3925;48.636;9.516;2022-12-20T03:51:26;3.10;99.90
7762;DHT22;3925;48.636;9.516;2022-12-20T03:53:54;3.20;99.90
7762;DHT22;3925;48.636;9.516;2022-12-20T03:56:21;3.00;99.90
7762;DHT22;3925;48.636;9.516;2022-12-20T03:58:48;2.90;99.90
7762;DHT22;3925;48.636;9.516;2022-12-20T04:01:17;3.00;99.90
7762;DHT22;3925;48.636;9.516;2022-12-20T04:03:44;3.00;99.90
7762;DHT22;3925;48.636;9.516;2022-12-20T04:06:11;2.90;99.90
7762;DHT22;3925;48.636;9.516;2022-12-20T04:08:38;3.00;99.90
7762;DHT22;3925;48.636;9.516;2022-12-20T04:11:06;2.90;99.90
7762;DHT22;3925;48.636;9.516;2022-12-20T04:13:42;2.90;99.90
7762;DHT22;3925;48.636;9.516;2022-12-20T04:16:09;2.90;99.90
7762;DHT22;3925;48.636;9.516;2022-12-20T04:18:36;2.80;99.90
7762;DHT22;3925;48.636;9.516;2022-12-20T04:21:03;2.90;99.90
7762;DHT22;3925;48.636;9.516;2022-12-20T04:23:32;2.90;99.90
7762;DHT22;3925;48.636;9.516;2022-12-20T04:25:59;3.00;99.90
7762;DHT22;3925;48.636;9.516;2022-12-20T04:28:27;3.00;99.90
7762;DHT22;3925;48.636;9.516;2022-12-20T04:30:54;2.90;99.90
7762;DHT22;3925;48.636;9.516;2022-12-20T04:33:21;2.70;99.90
7762;DHT22;3925;48.636;9.516;2022-12-20T04:35:48;2.90;99.90
7762;DHT22;3925;48.636;9.516;2022-12-20T04:38:15;2.70;99.90
7762;DHT22;3925;48.636;9.516;2022-12-20T04:40:42;2.90;99.90
7762;DHT22;3925;48.636;9.516;2022-12-20T04:43:09;2.90;99.90
7762;DHT22;3925;48.636;9.516;2022-12-20T04:45:37;3.00;99.90
7762;DHT22;3925;48.636;9.516;2022-12-20T04:48:04;3.10;99.90
7762;DHT22;3925;48.636;9.516;2022-12-20T04:50:31;2.90;99.90
7762;DHT22;3925;48.636;9.516;2022-12-20T04:52:58;2.80;99.90
7762;DHT22;3925;48.636;9.516;2022-12-20T04:55:44;2.90;99.90
7762;DHT22;3925;48.636;9.516;2022-12-20T04:58:11;2.70;99.90
7762;DHT22;3925;48.636;9.516;2022-12-20T05:00:39;2.70;99.90
7762;DHT22;3925;48.636;9.516;2022-12-20T05:03:06;2.90;99.90
7762;DHT22;3925;48.636;9.516;2022-12-20T05:05:33;2.90;99.90
7762;DHT22;3925;48.636;9.516;2022-12-20T05:08:00;2.80;99.90
7762;DHT22;3925;48.636;9.516;2022-12-20T05:10:27;2.60;99.90
7762;DHT22;3925;48.636;9.516;2022-12-20T05:12:54;2.90;99.90
7762;DHT22;3925;48.636;9.516;2022-12-20T05:15:21;2.90;99.90
7762;DHT22;3925;48.636;9.516;2022-12-20T05:17:49;3.00;99.90
7762;DHT22;3925;48.636;9.516;2022-12-20T05:20:16;3.10;99.90
7762;DHT22;3925;48.636;9.516;2022-12-20T05:22:43;3.00;99.90
7762;DHT22;3925;48.636;9.516;2022-12-20T05:25:27;3.00;99.90
7762;DHT22;3925;48.636;9.516;2022-12-20T05:28:11;3.10;99.90
7762;DHT22;3925;48.636;9.516;2022-12-20T05:30:38;3.10;99.90
7762;DHT22;3925;48.636;9.516;2022-12-20T05:33:06;2.90;99.90
7762;DHT22;3925;48.636;9.516;2022-12-20T05:35:33;3.00;99.90
7762;DHT22;3925;48.636;9.516;2022-12-20T05:38:00;3.10;99.90
7762;DHT22;3925;48.636;9.516;2022-12-20T05:40:27;3.20;99.90
7762;DHT22;3925;48.636;9.516;2022-12-20T05:42:55;3.20;99.90
7762;DHT22;3925;48.636;9.516;2022-12-20T05:45:22;3.30;99.90
7762;DHT22;3925;48.636;9.516;2022-12-20T05:47:49;3.20;99.90
7762;DHT22;3925;48.636;9.516;2022-12-20T05:50:17;3.20;99.90
7762;DHT22;3925;48.636;9.516;2022-12-20T05:52:44;3.10;99.90
7762;DHT22;3925;48.636;9.516;2022-12-20T05:55:11;3.20;99.90
7762;DHT22;3925;48.636;9.516;2022-12-20T05:57:38;3.10;99.90
7762;DHT22;3925;48.636;9.516;2022-12-20T06:00:06;2.90;99.90
7762;DHT22;3925;48.636;9.516;2022-12-20T06:02:33;2.90;99.90
7762;DHT22;3925;48.636;9.516;2022-12-20T06:05:00;2.90;99.90
7762;DHT22;3925;48.636;9.516;2022-12-20T06:07:28;3.00;99.90
7762;DHT22;3925;48.636;9.516;2022-12-20T06:09:56;3.10;99.90
7762;DHT22;3925;48.636;9.516;2022-12-20T06:12:23;3.20;99.90
7762;DHT22;3925;48.636;9.516;2022-12-20T06:14:50;3.20;99.90
7762;DHT22;3925;48.636;9.516;2022-12-20T06:17:17;3.10;99.90
7762;DHT22;3925;48.636;9.516;2022-12-20T06:19:44;3.00;99.90
7762;DHT22;3925;48.636;9.516;2022-12-20T06:22:11;2.90;99.90
7762;DHT22;3925;48.636;9.516;2022-12-20T06:24:39;2.90;99.90
7762;DHT22;3925;48.636;9.516;2022-12-20T06:27:06;3.00;99.90
7762;DHT22;3925;48.636;9.516;2022-12-20T06:29:33;2.90;99.90
7762;DHT22;3925;48.636;9.516;2022-12-20T06:32:02;2.80;99.90
7762;DHT22;3925;48.636;9.516;2022-12-20T06:34:30;2.80;99.90
7762;DHT22;3925;48.636;9.516;2022-12-20T06:36:56;2.80;99.90
7762;DHT22;3925;48.636;9.516;2022-12-20T06:39:24;2.70;99.90
7762;DHT22;3925;48.636;9.516;2022-12-20T06:41:52;2.60;99.90
7762;DHT22;3925;48.636;9.516;2022-12-20T06:44:18;2.70;99.90
7762;DHT22;3925;48.636;9.516;2022-12-20T06:46:45;3.00;99.90
7762;DHT22;3925;48.636;9.516;2022-12-20T06:49:12;3.20;99.90
7762;DHT22;3925;48.636;9.516;2022-12-20T06:51:39;3.30;99.90
7762;DHT22;3925;48.636;9.516;2022-12-20T06:54:06;3.30;99.90
7762;DHT22;3925;48.636;9.516;2022-12-20T06:56:33;3.40;99.90
7762;DHT22;3925;48.636;9.516;2022-12-20T06:59:01;3.40;99.90
7762;DHT22;3925;48.636;9.516;2022-12-20T07:01:28;3.40;99.90
7762;DHT22;3925;48.636;9.516;2022-12-20T07:03:55;3.20;99.90
7762;DHT22;3925;48.636;9.516;2022-12-20T07:06:21;3.10;99.90
7762;DHT22;3925;48.636;9.516;2022-12-20T07:08:48;3.30;99.90
7762;DHT22;3925;48.636;9.516;2022-12-20T07:11:15;3.30;99.90
7762;DHT22;3925;48.636;9.516;2022-12-20T07:13:42;3.50;99.90
7762;DHT22;3925;48.636;9.516;2022-12-20T07:16:11;3.60;99.90
7762;DHT22;3925;48.636;9.516;2022-12-20T07:18:37;3.70;99.90
7762;DHT22;3925;48.636;9.516;2022-12-20T07:21:05;3.80;99.90
7762;DHT22;3925;48.636;9.516;2022-12-20T07:23:32;3.90;99.90
7762;DHT22;3925;48.636;9.516;2022-12-20T07:26:00;3.80;99.90
7762;DHT22;3925;48.636;9.516;2022-12-20T07:28:28;3.80;99.90
7762;DHT22;3925;48.636;9.516;2022-12-20T07:30:59;3.80;99.90
7762;DHT22;3925;48.636;9.516;2022-12-20T07:33:28;3.60;99.90
7762;DHT22;3925;48.636;9.516;2022-12-20T07:36:00;3.80;99.90
7762;DHT22;3925;48.636;9.516;2022-12-20T07:38:27;3.80;99.90
7762;DHT22;3925;48.636;9.516;2022-12-20T07:40:54;3.90;99.90
7762;DHT22;3925;48.636;9.516;2022-12-20T07:43:21;4.00;99.90
7762;DHT22;3925;48.636;9.516;2022-12-20T07:45:52;4.10;99.90
7762;DHT22;3925;48.636;9.516;2022-12-20T07:48:19;4.10;99.90
7762;DHT22;3925;48.636;9.516;2022-12-20T07:50:47;4.20;99.90
7762;DHT22;3925;48.636;9.516;2022-12-20T07:53:14;4.20;99.90
7762;DHT22;3925;48.636;9.516;2022-12-20T07:55:42;4.20;99.90
7762;DHT22;3925;48.636;9.516;2022-12-20T07:58:11;4.10;99.90
7762;DHT22;3925;48.636;9.516;2022-12-20T08:00:38;4.10;99.90
7762;DHT22;3925;48.636;9.516;2022-12-20T08:03:07;4.10;99.90
7762;DHT22;3925;48.636;9.516;2022-12-20T08:05:38;4.30;99.90
7762;DHT22;3925;48.636;9.516;2022-12-20T08:08:08;4.40;99.90
7762;DHT22;3925;48.636;9.516;2022-12-20T08:10:36;4.40;99.90
7762;DHT22;3925;48.636;9.516;2022-12-20T08:13:04;4.50;99.90
7762;DHT22;3925;48.636;9.516;2022-12-20T08:15:32;4.60;99.90
7762;DHT22;3925;48.636;9.516;2022-12-20T08:18:00;4.60;99.90
7762;DHT22;3925;48.636;9.516;2022-12-20T08:20:27;4.70;99.90
7762;DHT22;3925;48.636;9.516;2022-12-20T08:22:54;5.00;99.90
7762;DHT22;3925;48.636;9.516;2022-12-20T08:25:23;5.10;99.90
7762;DHT22;3925;48.636;9.516;2022-12-20T08:27:50;5.10;99.90
7762;DHT22;3925;48.636;9.516;2022-12-20T08:30:17;5.20;99.90
7762;DHT22;3925;48.636;9.516;2022-12-20T08:32:44;5.30;99.90
7762;DHT22;3925;48.636;9.516;2022-12-20T08:35:11;5.40;99.90
7762;DHT22;3925;48.636;9.516;2022-12-20T08:37:40;5.20;99.90
7762;DHT22;3925;48.636;9.516;2022-12-20T08:40:08;5.00;99.90
7762;DHT22;3925;48.636;9.516;2022-12-20T08:42:36;5.10;99.90
7762;DHT22;3925;48.636;9.516;2022-12-20T08:45:04;5.10;99.90
7762;DHT22;3925;48.636;9.516;2022-12-20T08:47:31;5.30;99.90
7762;DHT22;3925;48.636;9.516;2022-12-20T08:49:58;5.60;99.90
7762;DHT22;3925;48.636;9.516;2022-12-20T08:52:26;5.80;99.90
7762;DHT22;3925;48.636;9.516;2022-12-20T08:54:53;6.00;99.90
7762;DHT22;3925;48.636;9.516;2022-12-20T08:57:20;6.10;99.90
7762;DHT22;3925;48.636;9.516;2022-12-20T08:59:48;6.10;99.90
7762;DHT22;3925;48.636;9.516;2022-12-20T09:02:15;5.90;99.90
7762;DHT22;3925;48.636;9.516;2022-12-20T09:04:42;5.60;99.90
7762;DHT22;3925;48.636;9.516;2022-12-20T09:07:09;5.50;99.90
7762;DHT22;3925;48.636;9.516;2022-12-20T09:09:36;5.50;99.90
7762;DHT22;3925;48.636;9.516;2022-12-20T09:12:03;5.60;99.90
7762;DHT22;3925;48.636;9.516;2022-12-20T09:14:32;5.60;99.90
7762;DHT22;3925;48.636;9.516;2022-12-20T09:17:00;5.60;99.90
7762;DHT22;3925;48.636;9.516;2022-12-20T09:19:27;5.60;99.90
7762;DHT22;3925;48.636;9.516;2022-12-20T09:21:54;5.70;99.90
7762;DHT22;3925;48.636;9.516;2022-12-20T09:24:21;6.00;99.90
7762;DHT22;3925;48.636;9.516;2022-12-20T09:26:50;6.20;99.90
7762;DHT22;3925;48.636;9.516;2022-12-20T09:29:17;6.30;99.90
7762;DHT22;3925;48.636;9.516;2022-12-20T09:31:44;6.20;99.90
7762;DHT22;3925;48.636;9.516;2022-12-20T09:34:12;6.00;99.90
7762;DHT22;3925;48.636;9.516;2022-12-20T09:36:39;5.90;99.90
7762;DHT22;3925;48.636;9.516;2022-12-20T09:39:07;6.00;99.90
7762;DHT22;3925;48.636;9.516;2022-12-20T09:41:36;5.80;99.90
7762;DHT22;3925;48.636;9.516;2022-12-20T09:44:09;5.90;99.90
7762;DHT22;3925;48.636;9.516;2022-12-20T09:46:38;6.00;99.90
7762;DHT22;3925;48.636;9.516;2022-12-20T09:49:05;5.90;99.90
7762;DHT22;3925;48.636;9.516;2022-12-20T09:51:47;6.00;99.90
7762;DHT22;3925;48.636;9.516;2022-12-20T09:54:27;6.10;99.90
7762;DHT22;3925;48.636;9.516;2022-12-20T09:57:04;6.60;99.90
7762;DHT22;3925;48.636;9.516;2022-12-20T09:59:34;6.80;99.90
7762;DHT22;3925;48.636;9.516;2022-12-20T10:02:01;7.20;99.90
7762;DHT22;3925;48.636;9.516;2022-12-20T10:04:29;7.30;99.90
7762;DHT22;3925;48.636;9.516;2022-12-20T10:07:11;7.60;99.90
7762;DHT22;3925;48.636;9.516;2022-12-20T10:09:52;8.30;99.90
7762;DHT22;3925;48.636;9.516;2022-12-20T10:12:31;8.20;99.90
7762;DHT22;3925;48.636;9.516;2022-12-20T10:15:09;8.30;99.90
7762;DHT22;3925;48.636;9.516;2022-12-20T10:17:49;8.50;99.90
7762;DHT22;3925;48.636;9.516;2022-12-20T10:20:30;8.50;99.90
7762;DHT22;3925;48.636;9.516;2022-12-20T10:23:03;9.10;99.90
7762;DHT22;3925;48.636;9.516;2022-12-20T10:25:32;9.70;99.90
7762;DHT22;3925;48.636;9.516;2022-12-20T10:28:03;10.20;99.90
7762;DHT22;3925;48.636;9.516;2022-12-20T10:30:35;10.40;99.90
7762;DHT22;3925;48.636;9.516;2022-12-20T10:33:02;10.00;99.90
7762;DHT22;3925;48.636;9.516;2022-12-20T10:35:35;9.80;99.90
7762;DHT22;3925;48.636;9.516;2022-12-20T10:38:05;9.70;99.90
7762;DHT22;3925;48.636;9.516;2022-12-20T10:40:34;9.40;99.90
7762;DHT22;3925;48.636;9.516;2022-12-20T10:43:03;9.30;99.90
7762;DHT22;3925;48.636;9.516;2022-12-20T10:45:35;9.20;99.90
7762;DHT22;3925;48.636;9.516;2022-12-20T10:48:04;9.10;99.90
7762;DHT22;3925;48.636;9.516;2022-12-20T10:50:32;8.60;99.90
7762;DHT22;3925;48.636;9.516;2022-12-20T10:53:21;8.60;99.90
7762;DHT22;3925;48.636;9.516;2022-12-20T10:55:52;8.50;99.90
7762;DHT22;3925;48.636;9.516;2022-12-20T10:58:28;8.40;99.90
7762;DHT22;3925;48.636;9.516;2022-12-20T11:01:04;8.20;99.90
7762;DHT22;3925;48.636;9.516;2022-12-20T11:03:33;8.10;99.90
7762;DHT22;3925;48.636;9.516;2022-12-20T11:06:16;7.80;99.90
7762;DHT22;3925;48.636;9.516;2022-12-20T11:08:44;7.50;99.90
7762;DHT22;3925;48.636;9.516;2022-12-20T11:11:15;7.60;99.90
7762;DHT22;3925;48.636;9.516;2022-12-20T11:13:44;7.70;99.90
7762;DHT22;3925;48.636;9.516;2022-12-20T11:16:27;7.70;99.90
7762;DHT22;3925;48.636;9.516;2022-12-20T11:19:16;7.90;99.90
7762;DHT22;3925;48.636;9.516;2022-12-20T11:21:52;7.90;99.90
7762;DHT22;3925;48.636;9.516;2022-12-20T11:24:31;8.00;99.90
7762;DHT22;3925;48.636;9.516;2022-12-20T11:27:15;8.10;99.90
7762;DHT22;3925;48.636;9.516;2022-12-20T11:29:57;8.00;99.90
7762;DHT22;3925;48.636;9.516;2022-12-20T11:32:41;7.80;99.90
7762;DHT22;3925;48.636;9.516;2022-12-20T11:35:13;7.90;99.90
7762;DHT22;3925;48.636;9.516;2022-12-20T11:37:48;7.70;99.90
7762;DHT22;3925;48.636;9.516;2022-12-20T11:40:26;7.70;99.90
7762;DHT22;3925;48.636;9.516;2022-12-20T11:43:03;7.70;99.90
7762;DHT22;3925;48.636;9.516;2022-12-20T11:45:40;7.80;99.90
7762;DHT22;3925;48.636;9.516;2022-12-20T11:48:25;7.60;99.90
7762;DHT22;3925;48.636;9.516;2022-12-20T11:51:02;7.40;99.90
7762;DHT22;3925;48.636;9.516;2022-12-20T11:53:36;7.20;99.90
7762;DHT22;3925;48.636;9.516;2022-12-20T11:56:08;7.20;99.90
7762;DHT22;3925;48.636;9.516;2022-12-20T11:58:47;7.30;99.90
7762;DHT22;3925;48.636;9.516;2022-12-20T12:01:19;7.40;99.90
7762;DHT22;3925;48.636;9.516;2022-12-20T12:03:57;7.50;99.90
7762;DHT22;3925;48.636;9.516;2022-12-20T12:06:27;7.60;99.90
7762;DHT22;3925;48.636;9.516;2022-12-20T12:09:05;7.70;99.90
7762;DHT22;3925;48.636;9.516;2022-12-20T12:11:40;7.80;99.90
7762;DHT22;3925;48.636;9.516;2022-12-20T12:14:15;7.90;99.90
7762;DHT22;3925;48.636;9.516;2022-12-20T12:16:47;7.90;99.90
7762;DHT22;3925;48.636;9.516;2022-12-20T12:19:16;7.70;99.90
7762;DHT22;3925;48.636;9.516;2022-12-20T12:21:46;7.60;99.90
7762;DHT22;3925;48.636;9.516;2022-12-20T12:24:20;7.70;99.90
7762;DHT22;3925;48.636;9.516;2022-12-20T12:26:48;7.60;99.90
7762;DHT22;3925;48.636;9.516;2022-12-20T12:29:17;7.60;99.90
7762;DHT22;3925;48.636;9.516;2022-12-20T12:31:48;7.50;99.90
7762;DHT22;3925;48.636;9.516;2022-12-20T12:34:29;7.70;99.90
7762;DHT22;3925;48.636;9.516;2022-12-20T12:43:37;7.40;99.90
7762;DHT22;3925;48.636;9.516;2022-12-20T12:46:11;7.40;99.90
7762;DHT22;3925;48.636;9.516;2022-12-20T12:48:41;7.50;99.90
7762;DHT22;3925;48.636;9.516;2022-12-20T12:51:10;7.60;99.90
7762;DHT22;3925;48.636;9.516;2022-12-20T12:53:42;7.70;99.90
7762;DHT22;3925;48.636;9.516;2022-12-20T12:56:39;7.60;99.90
7762;DHT22;3925;48.636;9.516;2022-12-20T13:02:21;7.40;99.90
7762;DHT22;3925;48.636;9.516;2022-12-20T13:04:53;7.40;99.90
7762;DHT22;3925;48.636;9.516;2022-12-20T13:07:28;7.30;99.90
7762;DHT22;3925;48.636;9.516;2022-12-20T13:13:20;7.70;99.90
7762;DHT22;3925;48.636;9.516;2022-12-20T13:16:10;8.00;99.90
7762;DHT22;3925;48.636;9.516;2022-12-20T13:18:37;8.00;99.90
7762;DHT22;3925;48.636;9.516;2022-12-20T13:21:30;8.20;99.90
7762;DHT22;3925;48.636;9.516;2022-12-20T13:27:33;8.10;99.90
7762;DHT22;3925;48.636;9.516;2022-12-20T13:30:22;8.10;99.90
7762;DHT22;3925;48.636;9.516;2022-12-20T13:32:57;8.10;99.90
7762;DHT22;3925;48.636;9.516;2022-12-20T13:35:29;8.10;99.90
7762;DHT22;3925;48.636;9.516;2022-12-20T13:37:57;8.10;99.90
7762;DHT22;3925;48.636;9.516;2022-12-20T13:40:34;8.10;99.90
7762;DHT22;3925;48.636;9.516;2022-12-20T13:43:05;8.20;99.90
7762;DHT22;3925;48.636;9.516;2022-12-20T13:45:34;8.20;99.90
7762;DHT22;3925;48.636;9.516;2022-12-20T13:48:05;8.10;99.90
7762;DHT22;3925;48.636;9.516;2022-12-20T13:50:37;8.00;99.90
7762;DHT22;3925;48.636;9.516;2022-12-20T13:53:05;7.80;99.90
7762;DHT22;3925;48.636;9.516;2022-12-20T13:55:41;7.60;99.90
7762;DHT22;3925;48.636;9.516;2022-12-20T13:58:15;7.50;99.90
7762;DHT22;3925;48.636;9.516;2022-12-20T14:00:45;7.50;99.90
7762;DHT22;3925;48.636;9.516;2022-12-20T14:03:21;7.40;99.90
7762;DHT22;3925;48.636;9.516;2022-12-20T14:05:48;7.30;99.90
7762;DHT22;3925;48.636;9.516;2022-12-20T14:08:19;6.80;99.90
7762;DHT22;3925;48.636;9.516;2022-12-20T14:10:46;6.80;99.90
7762;DHT22;3925;48.636;9.516;2022-12-20T14:13:20;6.90;99.90
7762;DHT22;3925;48.636;9.516;2022-12-20T14:15:47;6.90;99.90
7762;DHT22;3925;48.636;9.516;2022-12-20T14:18:20;6.70;99.90
7762;DHT22;3925;48.636;9.516;2022-12-20T14:20:50;6.80;99.90
7762;DHT22;3925;48.636;9.516;2022-12-20T14:23:19;6.80;99.90
7762;DHT22;3925;48.636;9.516;2022-12-20T14:25:49;6.90;99.90
7762;DHT22;3925;48.636;9.516;2022-12-20T14:28:29;6.80;99.90
7762;DHT22;3925;48.636;9.516;2022-12-20T14:30:57;7.00;99.90
7762;DHT22;3925;48.636;9.516;2022-12-20T14:33:30;7.10;99.90
7762;DHT22;3925;48.636;9.516;2022-12-20T14:36:08;7.20;99.90
7762;DHT22;3925;48.636;9.516;2022-12-20T14:38:35;7.00;99.90
7762;DHT22;3925;48.636;9.516;2022-12-20T14:41:02;7.10;99.90
7762;DHT22;3925;48.636;9.516;2022-12-20T14:43:33;7.20;99.90
7762;DHT22;3925;48.636;9.516;2022-12-20T14:46:18;7.00;99.90
7762;DHT22;3925;48.636;9.516;2022-12-20T14:48:46;7.00;99.90
7762;DHT22;3925;48.636;9.516;2022-12-20T14:51:19;6.80;99.90
7762;DHT22;3925;48.636;9.516;2022-12-20T14:53:48;7.00;99.90
7762;DHT22;3925;48.636;9.516;2022-12-20T14:56:19;6.90;99.90
7762;DHT22;3925;48.636;9.516;2022-12-20T14:59:00;7.00;99.90
7762;DHT22;3925;48.636;9.516;2022-12-20T15:01:30;7.00;99.90
7762;DHT22;3925;48.636;9.516;2022-12-20T15:03:59;7.00;99.90
7762;DHT22;3925;48.636;9.516;2022-12-20T15:06:31;7.10;99.90
7762;DHT22;3925;48.636;9.516;2022-12-20T15:08:59;6.90;99.90
7762;DHT22;3925;48.636;9.516;2022-12-20T15:11:27;6.90;99.90
7762;DHT22;3925;48.636;9.516;2022-12-20T15:13:55;6.90;99.90
7762;DHT22;3925;48.636;9.516;2022-12-20T15:16:24;6.90;99.90
7762;DHT22;3925;48.636;9.516;2022-12-20T15:18:53;6.70;99.90
7762;DHT22;3925;48.636;9.516;2022-12-20T15:21:27;6.70;99.90
7762;DHT22;3925;48.636;9.516;2022-12-20T15:23:55;6.60;99.90
7762;DHT22;3925;48.636;9.516;2022-12-20T15:26:24;6.80;99.90
7762;DHT22;3925;48.636;9.516;2022-12-20T15:28:51;6.70;99.90
7762;DHT22;3925;48.636;9.516;2022-12-20T15:31:21;6.50;99.90
7762;DHT22;3925;48.636;9.516;2022-12-20T15:33:50;6.30;99.90
7762;DHT22;3925;48.636;9.516;2022-12-20T15:36:20;6.20;99.90
7762;DHT22;3925;48.636;9.516;2022-12-20T15:38:49;6.20;99.90
7762;DHT22;3925;48.636;9.516;2022-12-20T15:41:22;6.00;99.90
7762;DHT22;3925;48.636;9.516;2022-12-20T15:43:51;6.00;99.90
7762;DHT22;3925;48.636;9.516;2022-12-20T15:46:19;5.90;99.90
7762;DHT22;3925;48.636;9.516;2022-12-20T15:48:46;5.80;99.90
7762;DHT22;3925;48.636;9.516;2022-12-20T15:51:15;5.70;99.90
7762;DHT22;3925;48.636;9.516;2022-12-20T15:53:43;5.50;99.90
7762;DHT22;3925;48.636;9.516;2022-12-20T15:56:16;5.60;99.90
7762;DHT22;3925;48.636;9.516;2022-12-20T15:58:45;5.70;99.90
7762;DHT22;3925;48.636;9.516;2022-12-20T16:03:40;5.70;99.90
7762;DHT22;3925;48.636;9.516;2022-12-20T16:06:09;5.60;99.90
7762;DHT22;3925;48.636;9.516;2022-12-20T16:08:37;5.70;99.90
7762;DHT22;3925;48.636;9.516;2022-12-20T16:11:05;5.90;99.90
7762;DHT22;3925;48.636;9.516;2022-12-20T16:13:33;6.00;99.90
7762;DHT22;3925;48.636;9.516;2022-12-20T16:16:00;5.90;99.90
7762;DHT22;3925;48.636;9.516;2022-12-20T16:18:27;5.90;99.90
7762;DHT22;3925;48.636;9.516;2022-12-20T16:20:54;5.90;99.90
7762;DHT22;3925;48.636;9.516;2022-12-20T16:23:21;5.70;99.90
7762;DHT22;3925;48.636;9.516;2022-12-20T16:25:49;5.70;99.90
7762;DHT22;3925;48.636;9.516;2022-12-20T16:28:16;5.80;99.90
7762;DHT22;3925;48.636;9.516;2022-12-20T16:30:44;6.00;99.90
7762;DHT22;3925;48.636;9.516;2022-12-20T16:33:18;6.10;99.90
7762;DHT22;3925;48.636;9.516;2022-12-20T16:35:45;6.00;99.90
7762;DHT22;3925;48.636;9.516;2022-12-20T16:38:12;6.10;99.90
7762;DHT22;3925;48.636;9.516;2022-12-20T16:40:39;6.10;99.90
7762;DHT22;3925;48.636;9.516;2022-12-20T16:43:12;6.10;99.90
7762;DHT22;3925;48.636;9.516;2022-12-20T16:45:40;6.10;99.90
7762;DHT22;3925;48.636;9.516;2022-12-20T16:48:09;5.80;99.90
7762;DHT22;3925;48.636;9.516;2022-12-20T16:50:36;5.80;99.90
7762;DHT22;3925;48.636;9.516;2022-12-20T16:53:11;5.80;99.90
7762;DHT22;3925;48.636;9.516;2022-12-20T16:55:38;5.80;99.90